KELD/ELD METAR and TAF weather

Enter ICAO airport designator
Station Type Date Time Source
KELD METAR 2021/08/05 02:53 UTC NOAA

KELD 050253Z AUTO 00000KT 10SM CLR 23/19 A3007 RMK AO2 SLP179 T02280194 53016


Station Type Date Time Source
KELD Decoded METAR 2021/08/05 02:53 UTC NOAA

SOUTH ARKANSAS REGIONAL, AR, United States (KELD) 33-13N 092-49W 81M
Aug 04, 2021 - 10:53 PM EDT / 2021.08.05 0253 UTC
Wind: Calm:0
Visibility: 10 mile(s):0
Sky conditions: clear
Temperature: 73.0 F (22.8 C)
Dew Point: 66.9 F (19.4 C)
Relative Humidity: 81%
Pressure (altimeter): 30.07 in. Hg (1018 hPa)
Pressure tendency: 0.05 inches (1.6 hPa) higher than three hours ago
ob: KELD 050253Z AUTO 00000KT 10SM CLR 23/19 A3007 RMK AO2 SLP179 T02280194 53016
cycle: 3

Station Type Date Time Source
KELD TAF 2021/08/04 18:42 UTC NOAA

TAF KELD 041739Z 0418/0518 05006KT P6SM FEW250
FM050100 00000KT P6SM FEW250
FM051500 04004KT P6SM SCT250

Example: see airport list